KRVS

Richard Lloyd Jones Jr Airport

Tulsa, Oklahoma, USA
METAR KRVS 160153Z 00000KT 10SM CLR 02/M02 A3019 RMK AO2 SLP231 T00221022
Observed Flight Rules
Dec-16 @ 01:53 UTC (42 minutes ago) Visual Flight Rules
Visibility Clouds
10 miles
  • Clear skies
Temperatures Readings
Current 2°C / 36°F
Dewpoint -2°C / 28°F
Humidity 75%
Altimeter 30.19" Hg
Pressure 1023.1 hPa
Elevation 200
METAR KRVS 160153Z 00000KT 10SM CLR 02/M02 A3019 RMK AO2 SLP231 T00221022
Observed Flight Rules
Dec-16 @ 01:53 UTC
(42 minutes ago)
VFR
Clouds
  • Clear skies
Temperature Dewpoint
2°C / 36°F -2°C / 28°F
Humidity Altimeter Pressure
75% 30.19" Hg 1023.1 hPa